sensor_id;sensor_type;location;lat;lon;timestamp;temperature;humidity
70557;DHT22;58107;51.034;3.726;2022-07-25T00:00:35;26.30;45.00
70557;DHT22;58107;51.034;3.726;2022-07-25T00:03:03;26.40;44.40
70557;DHT22;58107;51.034;3.726;2022-07-25T00:05:31;26.40;45.00
70557;DHT22;58107;51.034;3.726;2022-07-25T00:07:58;26.20;46.10
70557;DHT22;58107;51.034;3.726;2022-07-25T00:10:26;26.20;45.70
70557;DHT22;58107;51.034;3.726;2022-07-25T00:12:53;26.20;45.40
70557;DHT22;58107;51.034;3.726;2022-07-25T00:15:21;26.30;45.40
70557;DHT22;58107;51.034;3.726;2022-07-25T00:17:48;26.40;46.10
70557;DHT22;58107;51.034;3.726;2022-07-25T00:20:16;26.50;45.40
70557;DHT22;58107;51.034;3.726;2022-07-25T00:22:43;26.60;44.80
70557;DHT22;58107;51.034;3.726;2022-07-25T00:25:11;26.40;45.20
70557;DHT22;58107;51.034;3.726;2022-07-25T00:27:38;26.20;46.30
70557;DHT22;58107;51.034;3.726;2022-07-25T00:30:06;26.10;47.00
70557;DHT22;58107;51.034;3.726;2022-07-25T00:32:34;25.90;47.50
70557;DHT22;58107;51.034;3.726;2022-07-25T00:35:02;25.90;48.20
70557;DHT22;58107;51.034;3.726;2022-07-25T00:37:30;25.60;49.20
70557;DHT22;58107;51.034;3.726;2022-07-25T00:39:57;25.50;49.80
70557;DHT22;58107;51.034;3.726;2022-07-25T00:42:25;25.50;50.40
70557;DHT22;58107;51.034;3.726;2022-07-25T00:44:52;25.40;51.00
70557;DHT22;58107;51.034;3.726;2022-07-25T00:47:19;25.40;51.00
70557;DHT22;58107;51.034;3.726;2022-07-25T00:49:47;25.40;51.40
70557;DHT22;58107;51.034;3.726;2022-07-25T00:52:15;25.40;51.70
70557;DHT22;58107;51.034;3.726;2022-07-25T00:54:42;25.40;52.70
70557;DHT22;58107;51.034;3.726;2022-07-25T00:57:10;25.30;52.30
70557;DHT22;58107;51.034;3.726;2022-07-25T00:59:38;25.20;52.60
70557;DHT22;58107;51.034;3.726;2022-07-25T01:02:05;25.20;52.50
70557;DHT22;58107;51.034;3.726;2022-07-25T01:04:33;25.20;52.40
70557;DHT22;58107;51.034;3.726;2022-07-25T01:07:01;25.00;52.80
70557;DHT22;58107;51.034;3.726;2022-07-25T01:09:29;25.00;53.20
70557;DHT22;58107;51.034;3.726;2022-07-25T01:11:57;24.70;54.20
70557;DHT22;58107;51.034;3.726;2022-07-25T01:14:24;24.60;54.50
70557;DHT22;58107;51.034;3.726;2022-07-25T01:16:52;24.60;54.00
70557;DHT22;58107;51.034;3.726;2022-07-25T01:19:19;24.50;54.60
70557;DHT22;58107;51.034;3.726;2022-07-25T01:21:47;24.20;55.30
70557;DHT22;58107;51.034;3.726;2022-07-25T01:24:15;24.10;56.10
70557;DHT22;58107;51.034;3.726;2022-07-25T01:26:42;24.10;56.30
70557;DHT22;58107;51.034;3.726;2022-07-25T01:29:10;24.00;56.40
70557;DHT22;58107;51.034;3.726;2022-07-25T01:31:37;23.90;56.60
70557;DHT22;58107;51.034;3.726;2022-07-25T01:34:05;23.90;56.80
70557;DHT22;58107;51.034;3.726;2022-07-25T01:36:32;23.90;57.00
70557;DHT22;58107;51.034;3.726;2022-07-25T01:39:00;24.00;56.60
70557;DHT22;58107;51.034;3.726;2022-07-25T01:41:28;23.90;56.60
70557;DHT22;58107;51.034;3.726;2022-07-25T01:43:55;23.90;56.90
70557;DHT22;58107;51.034;3.726;2022-07-25T01:46:23;23.90;56.90
70557;DHT22;58107;51.034;3.726;2022-07-25T01:48:50;23.80;57.30
70557;DHT22;58107;51.034;3.726;2022-07-25T01:51:18;23.70;57.50
70557;DHT22;58107;51.034;3.726;2022-07-25T01:53:46;23.60;58.00
70557;DHT22;58107;51.034;3.726;2022-07-25T01:56:13;23.50;58.30
70557;DHT22;58107;51.034;3.726;2022-07-25T01:58:41;23.60;58.30
70557;DHT22;58107;51.034;3.726;2022-07-25T02:01:08;23.60;58.20
70557;DHT22;58107;51.034;3.726;2022-07-25T02:03:36;23.60;58.20
70557;DHT22;58107;51.034;3.726;2022-07-25T02:06:06;23.50;58.60
70557;DHT22;58107;51.034;3.726;2022-07-25T02:08:34;23.30;59.10
70557;DHT22;58107;51.034;3.726;2022-07-25T02:11:02;23.30;59.10
70557;DHT22;58107;51.034;3.726;2022-07-25T02:13:29;23.20;59.60
70557;DHT22;58107;51.034;3.726;2022-07-25T02:15:57;23.20;59.70
70557;DHT22;58107;51.034;3.726;2022-07-25T02:18:24;23.10;60.30
70557;DHT22;58107;51.034;3.726;2022-07-25T02:20:52;23.00;61.10
70557;DHT22;58107;51.034;3.726;2022-07-25T02:23:19;23.00;61.00
70557;DHT22;58107;51.034;3.726;2022-07-25T02:26:07;23.00;60.80
70557;DHT22;58107;51.034;3.726;2022-07-25T02:28:34;23.00;60.80
70557;DHT22;58107;51.034;3.726;2022-07-25T02:31:03;23.00;61.20
70557;DHT22;58107;51.034;3.726;2022-07-25T02:33:31;22.70;61.60
70557;DHT22;58107;51.034;3.726;2022-07-25T02:35:58;22.60;62.70
70557;DHT22;58107;51.034;3.726;2022-07-25T02:38:26;22.40;63.50
70557;DHT22;58107;51.034;3.726;2022-07-25T02:40:54;22.40;64.10
70557;DHT22;58107;51.034;3.726;2022-07-25T02:43:22;22.30;64.00
70557;DHT22;58107;51.034;3.726;2022-07-25T02:45:49;22.20;63.80
70557;DHT22;58107;51.034;3.726;2022-07-25T02:48:17;22.20;64.00
70557;DHT22;58107;51.034;3.726;2022-07-25T02:50:45;22.20;63.90
70557;DHT22;58107;51.034;3.726;2022-07-25T02:53:13;22.10;63.60
70557;DHT22;58107;51.034;3.726;2022-07-25T02:55:40;22.10;63.50
70557;DHT22;58107;51.034;3.726;2022-07-25T02:58:08;22.10;63.10
70557;DHT22;58107;51.034;3.726;2022-07-25T03:00:36;22.00;62.70
70557;DHT22;58107;51.034;3.726;2022-07-25T03:03:04;22.10;62.60
70557;DHT22;58107;51.034;3.726;2022-07-25T03:05:32;22.10;61.40
70557;DHT22;58107;51.034;3.726;2022-07-25T03:08:00;22.10;60.30
70557;DHT22;58107;51.034;3.726;2022-07-25T03:10:28;22.00;60.00
70557;DHT22;58107;51.034;3.726;2022-07-25T03:12:55;22.00;59.60
70557;DHT22;58107;51.034;3.726;2022-07-25T03:15:23;21.90;59.70
70557;DHT22;58107;51.034;3.726;2022-07-25T03:17:51;22.00;59.60
70557;DHT22;58107;51.034;3.726;2022-07-25T03:20:19;21.90;59.70
70557;DHT22;58107;51.034;3.726;2022-07-25T03:22:46;21.80;59.70
70557;DHT22;58107;51.034;3.726;2022-07-25T03:25:14;21.70;59.70
70557;DHT22;58107;51.034;3.726;2022-07-25T03:27:42;21.60;59.90
70557;DHT22;58107;51.034;3.726;2022-07-25T03:30:10;21.60;60.00
70557;DHT22;58107;51.034;3.726;2022-07-25T03:32:38;21.70;59.90
70557;DHT22;58107;51.034;3.726;2022-07-25T03:35:07;21.70;59.50
70557;DHT22;58107;51.034;3.726;2022-07-25T03:37:34;21.60;58.90
70557;DHT22;58107;51.034;3.726;2022-07-25T03:40:03;21.60;59.00
70557;DHT22;58107;51.034;3.726;2022-07-25T03:42:31;21.60;58.70
70557;DHT22;58107;51.034;3.726;2022-07-25T03:44:59;21.50;58.80
70557;DHT22;58107;51.034;3.726;2022-07-25T03:47:26;21.40;59.00
70557;DHT22;58107;51.034;3.726;2022-07-25T03:49:54;21.50;58.80
70557;DHT22;58107;51.034;3.726;2022-07-25T03:52:22;21.50;58.60
70557;DHT22;58107;51.034;3.726;2022-07-25T03:54:50;21.40;58.70
70557;DHT22;58107;51.034;3.726;2022-07-25T03:57:18;21.30;59.20
70557;DHT22;58107;51.034;3.726;2022-07-25T03:59:45;21.30;59.70
70557;DHT22;58107;51.034;3.726;2022-07-25T04:02:13;21.30;60.30
70557;DHT22;58107;51.034;3.726;2022-07-25T04:04:41;21.30;60.70
70557;DHT22;58107;51.034;3.726;2022-07-25T04:07:09;21.30;61.20
70557;DHT22;58107;51.034;3.726;2022-07-25T04:09:36;21.30;61.90
70557;DHT22;58107;51.034;3.726;2022-07-25T04:12:05;21.20;62.60
70557;DHT22;58107;51.034;3.726;2022-07-25T04:14:32;21.20;62.70
70557;DHT22;58107;51.034;3.726;2022-07-25T04:17:00;21.10;63.70
70557;DHT22;58107;51.034;3.726;2022-07-25T04:19:28;21.10;64.30
70557;DHT22;58107;51.034;3.726;2022-07-25T04:21:56;21.10;64.80
70557;DHT22;58107;51.034;3.726;2022-07-25T04:24:24;21.20;65.00
70557;DHT22;58107;51.034;3.726;2022-07-25T04:26:51;21.20;65.40
70557;DHT22;58107;51.034;3.726;2022-07-25T04:29:19;21.20;65.20
70557;DHT22;58107;51.034;3.726;2022-07-25T04:31:47;21.20;65.50
70557;DHT22;58107;51.034;3.726;2022-07-25T04:34:15;21.20;66.00
70557;DHT22;58107;51.034;3.726;2022-07-25T04:36:43;21.20;66.10
70557;DHT22;58107;51.034;3.726;2022-07-25T04:39:10;21.20;66.10
70557;DHT22;58107;51.034;3.726;2022-07-25T04:41:38;21.10;66.60
70557;DHT22;58107;51.034;3.726;2022-07-25T04:44:06;21.00;66.80
70557;DHT22;58107;51.034;3.726;2022-07-25T04:46:34;21.00;66.90
70557;DHT22;58107;51.034;3.726;2022-07-25T04:49:01;21.00;66.90
70557;DHT22;58107;51.034;3.726;2022-07-25T04:51:29;20.90;66.70
70557;DHT22;58107;51.034;3.726;2022-07-25T04:53:57;20.90;66.60
70557;DHT22;58107;51.034;3.726;2022-07-25T04:56:25;20.80;66.40
70557;DHT22;58107;51.034;3.726;2022-07-25T04:58:52;20.80;66.50
70557;DHT22;58107;51.034;3.726;2022-07-25T05:01:20;20.70;67.20
70557;DHT22;58107;51.034;3.726;2022-07-25T05:03:48;20.70;68.10
70557;DHT22;58107;51.034;3.726;2022-07-25T05:06:16;20.70;68.60
70557;DHT22;58107;51.034;3.726;2022-07-25T05:08:45;20.70;69.50
70557;DHT22;58107;51.034;3.726;2022-07-25T05:11:13;20.70;70.00
70557;DHT22;58107;51.034;3.726;2022-07-25T05:13:41;20.60;71.10
70557;DHT22;58107;51.034;3.726;2022-07-25T05:16:08;20.60;71.50
70557;DHT22;58107;51.034;3.726;2022-07-25T05:18:53;20.60;72.60
70557;DHT22;58107;51.034;3.726;2022-07-25T05:21:21;20.60;72.50
70557;DHT22;58107;51.034;3.726;2022-07-25T05:23:48;20.70;73.10
70557;DHT22;58107;51.034;3.726;2022-07-25T05:26:16;20.70;73.20
70557;DHT22;58107;51.034;3.726;2022-07-25T05:28:44;20.70;73.60
70557;DHT22;58107;51.034;3.726;2022-07-25T05:31:11;20.70;73.30
70557;DHT22;58107;51.034;3.726;2022-07-25T05:33:39;20.80;73.70
70557;DHT22;58107;51.034;3.726;2022-07-25T05:36:08;20.90;73.60
70557;DHT22;58107;51.034;3.726;2022-07-25T05:38:36;20.80;74.10
70557;DHT22;58107;51.034;3.726;2022-07-25T05:41:04;20.80;74.50
70557;DHT22;58107;51.034;3.726;2022-07-25T05:43:31;20.70;74.80
70557;DHT22;58107;51.034;3.726;2022-07-25T05:46:04;20.70;75.20
70557;DHT22;58107;51.034;3.726;2022-07-25T05:48:32;20.70;75.30
70557;DHT22;58107;51.034;3.726;2022-07-25T05:50:59;20.70;75.80
70557;DHT22;58107;51.034;3.726;2022-07-25T05:53:27;20.80;75.90
70557;DHT22;58107;51.034;3.726;2022-07-25T05:55:55;20.70;76.40
70557;DHT22;58107;51.034;3.726;2022-07-25T05:58:22;20.70;76.80
70557;DHT22;58107;51.034;3.726;2022-07-25T06:00:50;20.70;77.10
70557;DHT22;58107;51.034;3.726;2022-07-25T06:03:18;20.80;77.20
70557;DHT22;58107;51.034;3.726;2022-07-25T06:05:46;20.70;78.00
70557;DHT22;58107;51.034;3.726;2022-07-25T06:08:14;20.60;78.50
70557;DHT22;58107;51.034;3.726;2022-07-25T06:10:42;20.70;77.90
70557;DHT22;58107;51.034;3.726;2022-07-25T06:13:10;20.70;78.30
70557;DHT22;58107;51.034;3.726;2022-07-25T06:15:38;20.60;78.70
70557;DHT22;58107;51.034;3.726;2022-07-25T06:18:06;20.60;79.20
70557;DHT22;58107;51.034;3.726;2022-07-25T06:20:34;20.60;79.70
70557;DHT22;58107;51.034;3.726;2022-07-25T06:23:03;20.60;79.90
70557;DHT22;58107;51.034;3.726;2022-07-25T06:25:31;20.50;80.50
70557;DHT22;58107;51.034;3.726;2022-07-25T06:27:58;20.60;80.70
70557;DHT22;58107;51.034;3.726;2022-07-25T06:30:27;20.60;81.00
70557;DHT22;58107;51.034;3.726;2022-07-25T06:32:55;20.80;80.60
70557;DHT22;58107;51.034;3.726;2022-07-25T06:35:23;20.80;80.90
70557;DHT22;58107;51.034;3.726;2022-07-25T06:37:51;20.70;81.40
70557;DHT22;58107;51.034;3.726;2022-07-25T06:40:18;20.70;81.70
70557;DHT22;58107;51.034;3.726;2022-07-25T06:42:47;20.70;81.80
70557;DHT22;58107;51.034;3.726;2022-07-25T06:45:14;20.80;81.80
70557;DHT22;58107;51.034;3.726;2022-07-25T06:47:43;20.70;82.30
70557;DHT22;58107;51.034;3.726;2022-07-25T06:50:14;20.80;81.50
70557;DHT22;58107;51.034;3.726;2022-07-25T06:52:42;20.90;81.50
70557;DHT22;58107;51.034;3.726;2022-07-25T06:55:10;21.00;81.00
70557;DHT22;58107;51.034;3.726;2022-07-25T06:57:39;21.00;81.00
70557;DHT22;58107;51.034;3.726;2022-07-25T07:00:09;21.00;81.10
70557;DHT22;58107;51.034;3.726;2022-07-25T07:02:52;20.80;81.60
70557;DHT22;58107;51.034;3.726;2022-07-25T07:05:23;20.90;81.90
70557;DHT22;58107;51.034;3.726;2022-07-25T07:07:51;21.00;81.10
70557;DHT22;58107;51.034;3.726;2022-07-25T07:10:20;21.10;80.90
70557;DHT22;58107;51.034;3.726;2022-07-25T07:12:49;21.30;80.50
70557;DHT22;58107;51.034;3.726;2022-07-25T07:15:17;21.50;79.20
70557;DHT22;58107;51.034;3.726;2022-07-25T07:17:44;21.50;78.80
70557;DHT22;58107;51.034;3.726;2022-07-25T07:20:12;21.80;77.60
70557;DHT22;58107;51.034;3.726;2022-07-25T07:22:47;21.90;77.20
70557;DHT22;58107;51.034;3.726;2022-07-25T07:25:16;21.90;77.40
70557;DHT22;58107;51.034;3.726;2022-07-25T07:27:44;21.90;77.40
70557;DHT22;58107;51.034;3.726;2022-07-25T07:30:31;21.70;77.20
70557;DHT22;58107;51.034;3.726;2022-07-25T07:32:59;21.70;77.10
70557;DHT22;58107;51.034;3.726;2022-07-25T07:35:32;21.90;76.70
70557;DHT22;58107;51.034;3.726;2022-07-25T07:38:00;22.00;75.90
70557;DHT22;58107;51.034;3.726;2022-07-25T07:40:29;21.80;75.90
70557;DHT22;58107;51.034;3.726;2022-07-25T07:42:57;21.70;76.10
70557;DHT22;58107;51.034;3.726;2022-07-25T07:45:26;21.80;75.40
70557;DHT22;58107;51.034;3.726;2022-07-25T07:47:54;21.90;74.80
70557;DHT22;58107;51.034;3.726;2022-07-25T07:50:25;22.00;74.70
70557;DHT22;58107;51.034;3.726;2022-07-25T07:52:54;22.30;72.90
70557;DHT22;58107;51.034;3.726;2022-07-25T07:55:23;22.40;71.90
70557;DHT22;58107;51.034;3.726;2022-07-25T07:58:11;22.40;71.70
70557;DHT22;58107;51.034;3.726;2022-07-25T08:00:42;22.60;70.90
70557;DHT22;58107;51.034;3.726;2022-07-25T08:03:10;22.70;69.70
70557;DHT22;58107;51.034;3.726;2022-07-25T08:05:40;22.90;69.20
70557;DHT22;58107;51.034;3.726;2022-07-25T08:08:10;23.10;68.20
70557;DHT22;58107;51.034;3.726;2022-07-25T08:10:57;23.20;66.80
70557;DHT22;58107;51.034;3.726;2022-07-25T08:13:30;23.20;66.60
70557;DHT22;58107;51.034;3.726;2022-07-25T08:16:01;23.50;66.50
70557;DHT22;58107;51.034;3.726;2022-07-25T08:18:32;23.70;65.10
70557;DHT22;58107;51.034;3.726;2022-07-25T08:21:01;23.90;64.10
70557;DHT22;58107;51.034;3.726;2022-07-25T08:23:31;24.00;63.10
70557;DHT22;58107;51.034;3.726;2022-07-25T08:26:01;23.90;63.40
70557;DHT22;58107;51.034;3.726;2022-07-25T08:28:29;23.70;63.80
70557;DHT22;58107;51.034;3.726;2022-07-25T08:30:57;23.60;64.30
70557;DHT22;58107;51.034;3.726;2022-07-25T08:33:25;23.60;64.40
70557;DHT22;58107;51.034;3.726;2022-07-25T08:35:55;23.70;63.80
70557;DHT22;58107;51.034;3.726;2022-07-25T08:38:25;23.90;63.60
70557;DHT22;58107;51.034;3.726;2022-07-25T08:40:55;23.90;63.00
70557;DHT22;58107;51.034;3.726;2022-07-25T08:43:23;23.90;62.60
70557;DHT22;58107;51.034;3.726;2022-07-25T08:45:52;23.70;62.30
70557;DHT22;58107;51.034;3.726;2022-07-25T08:48:23;23.70;62.60
70557;DHT22;58107;51.034;3.726;2022-07-25T08:50:53;23.60;62.80
70557;DHT22;58107;51.034;3.726;2022-07-25T08:53:24;23.50;62.90
70557;DHT22;58107;51.034;3.726;2022-07-25T08:55:53;23.50;62.50
70557;DHT22;58107;51.034;3.726;2022-07-25T08:58:21;23.40;63.50
70557;DHT22;58107;51.034;3.726;2022-07-25T09:00:48;23.40;62.70
70557;DHT22;58107;51.034;3.726;2022-07-25T09:03:16;23.50;62.30
70557;DHT22;58107;51.034;3.726;2022-07-25T09:05:44;23.80;62.00
70557;DHT22;58107;51.034;3.726;2022-07-25T09:08:18;23.80;60.90
70557;DHT22;58107;51.034;3.726;2022-07-25T09:10:51;23.70;61.70
70557;DHT22;58107;51.034;3.726;2022-07-25T09:13:20;23.50;62.20
70557;DHT22;58107;51.034;3.726;2022-07-25T09:15:51;23.50;63.00
70557;DHT22;58107;51.034;3.726;2022-07-25T09:18:24;23.40;63.40
70557;DHT22;58107;51.034;3.726;2022-07-25T09:20:56;23.40;62.80
70557;DHT22;58107;51.034;3.726;2022-07-25T09:26:12;23.50;62.00
70557;DHT22;58107;51.034;3.726;2022-07-25T09:28:42;23.60;62.20
70557;DHT22;58107;51.034;3.726;2022-07-25T09:31:11;23.70;62.10
70557;DHT22;58107;51.034;3.726;2022-07-25T09:33:55;23.80;61.50
70557;DHT22;58107;51.034;3.726;2022-07-25T09:36:24;23.60;61.30
70557;DHT22;58107;51.034;3.726;2022-07-25T09:38:59;23.50;62.60
70557;DHT22;58107;51.034;3.726;2022-07-25T09:41:38;23.30;63.10
70557;DHT22;58107;51.034;3.726;2022-07-25T09:44:16;23.20;62.70
70557;DHT22;58107;51.034;3.726;2022-07-25T09:46:44;23.20;62.70
70557;DHT22;58107;51.034;3.726;2022-07-25T09:49:12;23.30;62.20
70557;DHT22;58107;51.034;3.726;2022-07-25T09:51:41;23.40;62.00
70557;DHT22;58107;51.034;3.726;2022-07-25T09:54:09;23.30;61.20
70557;DHT22;58107;51.034;3.726;2022-07-25T09:56:37;23.30;61.70
70557;DHT22;58107;51.034;3.726;2022-07-25T09:59:05;23.40;61.60
70557;DHT22;58107;51.034;3.726;2022-07-25T10:01:35;23.40;61.90
70557;DHT22;58107;51.034;3.726;2022-07-25T10:04:11;23.30;62.50
70557;DHT22;58107;51.034;3.726;2022-07-25T10:06:39;23.20;62.40
70557;DHT22;58107;51.034;3.726;2022-07-25T10:09:12;23.00;63.00
70557;DHT22;58107;51.034;3.726;2022-07-25T10:12:01;22.90;63.60
70557;DHT22;58107;51.034;3.726;2022-07-25T10:14:11;23.00;64.50
70557;DHT22;58107;51.034;3.726;2022-07-25T10:16:46;23.10;63.10
70557;DHT22;58107;51.034;3.726;2022-07-25T10:19:14;23.50;62.00
70557;DHT22;58107;51.034;3.726;2022-07-25T10:21:42;23.70;61.10
70557;DHT22;58107;51.034;3.726;2022-07-25T10:24:11;23.90;59.90
70557;DHT22;58107;51.034;3.726;2022-07-25T10:26:50;23.70;59.50
70557;DHT22;58107;51.034;3.726;2022-07-25T10:29:10;23.40;60.40
70557;DHT22;58107;51.034;3.726;2022-07-25T10:31:42;23.40;61.40
70557;DHT22;58107;51.034;3.726;2022-07-25T10:34:12;23.40;60.70
70557;DHT22;58107;51.034;3.726;2022-07-25T10:39:13;23.20;60.00
70557;DHT22;58107;51.034;3.726;2022-07-25T10:41:43;23.20;59.90
70557;DHT22;58107;51.034;3.726;2022-07-25T10:44:13;23.30;59.60
70557;DHT22;58107;51.034;3.726;2022-07-25T10:46:42;23.50;59.40
70557;DHT22;58107;51.034;3.726;2022-07-25T10:49:23;24.00;58.50
70557;DHT22;58107;51.034;3.726;2022-07-25T10:51:59;24.00;58.10
70557;DHT22;58107;51.034;3.726;2022-07-25T10:54:37;23.90;57.50
70557;DHT22;58107;51.034;3.726;2022-07-25T10:57:03;23.50;58.70
70557;DHT22;58107;51.034;3.726;2022-07-25T10:59:36;23.30;59.70
70557;DHT22;58107;51.034;3.726;2022-07-25T11:02:07;23.20;60.10
70557;DHT22;58107;51.034;3.726;2022-07-25T11:04:35;23.20;60.60
70557;DHT22;58107;51.034;3.726;2022-07-25T11:07:22;23.20;60.70
70557;DHT22;58107;51.034;3.726;2022-07-25T11:09:58;23.20;61.00
70557;DHT22;58107;51.034;3.726;2022-07-25T11:12:26;23.20;60.20
70557;DHT22;58107;51.034;3.726;2022-07-25T11:15:05;23.30;59.50
70557;DHT22;58107;51.034;3.726;2022-07-25T11:17:34;23.40;59.40
70557;DHT22;58107;51.034;3.726;2022-07-25T11:20:07;23.50;59.30
70557;DHT22;58107;51.034;3.726;2022-07-25T11:22:36;23.70;58.00
70557;DHT22;58107;51.034;3.726;2022-07-25T11:25:11;24.20;57.60
70557;DHT22;58107;51.034;3.726;2022-07-25T11:27:40;25.00;55.20
70557;DHT22;58107;51.034;3.726;2022-07-25T11:30:08;25.90;51.50
70557;DHT22;58107;51.034;3.726;2022-07-25T11:32:44;25.70;50.50
70557;DHT22;58107;51.034;3.726;2022-07-25T11:35:14;25.40;50.80
70557;DHT22;58107;51.034;3.726;2022-07-25T11:37:42;25.80;49.80
70557;DHT22;58107;51.034;3.726;2022-07-25T11:40:12;26.10;48.80
70557;DHT22;58107;51.034;3.726;2022-07-25T11:42:44;26.20;48.20
70557;DHT22;58107;51.034;3.726;2022-07-25T11:47:48;25.30;49.50
70557;DHT22;58107;51.034;3.726;2022-07-25T11:50:16;24.90;51.30
70557;DHT22;58107;51.034;3.726;2022-07-25T11:52:44;24.60;52.10
70557;DHT22;58107;51.034;3.726;2022-07-25T11:55:15;24.60;52.10
70557;DHT22;58107;51.034;3.726;2022-07-25T11:57:45;24.70;52.20
70557;DHT22;58107;51.034;3.726;2022-07-25T12:00:39;25.10;51.10
70557;DHT22;58107;51.034;3.726;2022-07-25T12:03:12;25.90;49.70
70557;DHT22;58107;51.034;3.726;2022-07-25T12:05:40;25.40;49.80
70557;DHT22;58107;51.034;3.726;2022-07-25T12:08:12;25.10;51.00
70557;DHT22;58107;51.034;3.726;2022-07-25T12:10:41;24.80;51.60
70557;DHT22;58107;51.034;3.726;2022-07-25T12:13:21;25.30;50.80
70557;DHT22;58107;51.034;3.726;2022-07-25T12:15:41;25.60;48.00
70557;DHT22;58107;51.034;3.726;2022-07-25T12:18:09;25.40;47.70
70557;DHT22;58107;51.034;3.726;2022-07-25T12:20:39;25.90;46.40
70557;DHT22;58107;51.034;3.726;2022-07-25T12:23:09;25.50;47.10
70557;DHT22;58107;51.034;3.726;2022-07-25T12:25:38;25.10;48.20
70557;DHT22;58107;51.034;3.726;2022-07-25T12:28:06;24.80;49.30
70557;DHT22;58107;51.034;3.726;2022-07-25T12:30:36;25.40;48.00
70557;DHT22;58107;51.034;3.726;2022-07-25T12:33:05;25.70;46.50
70557;DHT22;58107;51.034;3.726;2022-07-25T12:35:33;25.20;47.10
70557;DHT22;58107;51.034;3.726;2022-07-25T12:38:04;25.10;48.00
70557;DHT22;58107;51.034;3.726;2022-07-25T12:40:31;24.90;48.00
70557;DHT22;58107;51.034;3.726;2022-07-25T12:42:59;24.60;48.60
70557;DHT22;58107;51.034;3.726;2022-07-25T12:45:27;24.40;49.10
70557;DHT22;58107;51.034;3.726;2022-07-25T12:47:55;24.40;49.80
70557;DHT22;58107;51.034;3.726;2022-07-25T12:50:23;24.50;49.60
70557;DHT22;58107;51.034;3.726;2022-07-25T12:52:51;24.40;49.90
70557;DHT22;58107;51.034;3.726;2022-07-25T12:55:19;24.50;50.40
70557;DHT22;58107;51.034;3.726;2022-07-25T12:57:47;24.40;50.30
70557;DHT22;58107;51.034;3.726;2022-07-25T13:00:17;24.80;48.60
70557;DHT22;58107;51.034;3.726;2022-07-25T13:02:46;25.60;46.90
70557;DHT22;58107;51.034;3.726;2022-07-25T13:05:14;26.80;43.70
70557;DHT22;58107;51.034;3.726;2022-07-25T13:07:42;26.90;43.20
70557;DHT22;58107;51.034;3.726;2022-07-25T13:10:10;27.60;41.70
70557;DHT22;58107;51.034;3.726;2022-07-25T13:12:38;26.90;41.60
70557;DHT22;58107;51.034;3.726;2022-07-25T13:15:06;26.00;43.70
70557;DHT22;58107;51.034;3.726;2022-07-25T13:17:34;26.10;44.00
70557;DHT22;58107;51.034;3.726;2022-07-25T13:20:03;25.80;45.40
70557;DHT22;58107;51.034;3.726;2022-07-25T13:22:31;25.60;45.20
70557;DHT22;58107;51.034;3.726;2022-07-25T13:24:59;25.40;46.10
70557;DHT22;58107;51.034;3.726;2022-07-25T13:27:26;25.60;46.30
70557;DHT22;58107;51.034;3.726;2022-07-25T13:29:54;26.90;43.10
70557;DHT22;58107;51.034;3.726;2022-07-25T13:32:23;27.00;42.50
70557;DHT22;58107;51.034;3.726;2022-07-25T13:34:53;26.40;44.40
70557;DHT22;58107;51.034;3.726;2022-07-25T13:37:21;26.00;44.70
70557;DHT22;58107;51.034;3.726;2022-07-25T13:39:49;25.40;45.60
70557;DHT22;58107;51.034;3.726;2022-07-25T13:42:16;24.90;46.50
70557;DHT22;58107;51.034;3.726;2022-07-25T13:44:44;24.70;47.30
70557;DHT22;58107;51.034;3.726;2022-07-25T13:47:12;24.70;47.50
70557;DHT22;58107;51.034;3.726;2022-07-25T13:49:40;25.30;47.10
70557;DHT22;58107;51.034;3.726;2022-07-25T13:52:08;26.70;43.60
70557;DHT22;58107;51.034;3.726;2022-07-25T13:54:36;26.40;44.50
70557;DHT22;58107;51.034;3.726;2022-07-25T13:57:04;27.60;42.20
70557;DHT22;58107;51.034;3.726;2022-07-25T13:59:32;27.30;42.20
70557;DHT22;58107;51.034;3.726;2022-07-25T14:01:59;26.60;43.70
70557;DHT22;58107;51.034;3.726;2022-07-25T14:04:27;25.70;45.50
70557;DHT22;58107;51.034;3.726;2022-07-25T14:06:56;25.40;46.60
70557;DHT22;58107;51.034;3.726;2022-07-25T14:09:25;25.20;47.00
70557;DHT22;58107;51.034;3.726;2022-07-25T14:11:53;24.90;47.40
70557;DHT22;58107;51.034;3.726;2022-07-25T14:14:20;24.90;47.50
70557;DHT22;58107;51.034;3.726;2022-07-25T14:16:48;25.00;47.20
70557;DHT22;58107;51.034;3.726;2022-07-25T14:19:16;25.00;47.10
70557;DHT22;58107;51.034;3.726;2022-07-25T14:21:44;24.90;46.60
70557;DHT22;58107;51.034;3.726;2022-07-25T14:24:11;24.60;47.10
70557;DHT22;58107;51.034;3.726;2022-07-25T14:26:39;24.40;47.30
70557;DHT22;58107;51.034;3.726;2022-07-25T14:29:07;24.30;47.80
70557;DHT22;58107;51.034;3.726;2022-07-25T14:31:38;24.20;48.10
70557;DHT22;58107;51.034;3.726;2022-07-25T14:34:06;24.20;48.10
70557;DHT22;58107;51.034;3.726;2022-07-25T14:36:34;24.20;48.30
70557;DHT22;58107;51.034;3.726;2022-07-25T14:39:03;24.30;48.40
70557;DHT22;58107;51.034;3.726;2022-07-25T14:41:31;24.70;48.20
70557;DHT22;58107;51.034;3.726;2022-07-25T14:43:58;25.00;46.80
70557;DHT22;58107;51.034;3.726;2022-07-25T14:46:26;24.50;48.20
70557;DHT22;58107;51.034;3.726;2022-07-25T14:48:54;24.40;48.60
70557;DHT22;58107;51.034;3.726;2022-07-25T14:51:23;24.40;48.80
70557;DHT22;58107;51.034;3.726;2022-07-25T14:53:51;24.60;48.90
70557;DHT22;58107;51.034;3.726;2022-07-25T14:56:19;24.50;49.30
70557;DHT22;58107;51.034;3.726;2022-07-25T14:58:46;24.30;49.20
70557;DHT22;58107;51.034;3.726;2022-07-25T15:01:14;24.20;49.40
70557;DHT22;58107;51.034;3.726;2022-07-25T15:03:44;24.00;50.00
70557;DHT22;58107;51.034;3.726;2022-07-25T15:06:11;23.80;50.20
70557;DHT22;58107;51.034;3.726;2022-07-25T15:08:39;23.70;50.70
70557;DHT22;58107;51.034;3.726;2022-07-25T15:11:08;23.50;51.30
70557;DHT22;58107;51.034;3.726;2022-07-25T15:13:38;23.60;51.90
70557;DHT22;58107;51.034;3.726;2022-07-25T15:16:06;23.70;51.70
70557;DHT22;58107;51.034;3.726;2022-07-25T15:18:34;23.70;51.60
70557;DHT22;58107;51.034;3.726;2022-07-25T15:21:02;23.80;52.00
70557;DHT22;58107;51.034;3.726;2022-07-25T15:23:30;23.90;51.60
70557;DHT22;58107;51.034;3.726;2022-07-25T15:25:58;24.00;50.90
70557;DHT22;58107;51.034;3.726;2022-07-25T15:28:26;24.10;50.80
70557;DHT22;58107;51.034;3.726;2022-07-25T15:30:54;24.20;50.60
70557;DHT22;58107;51.034;3.726;2022-07-25T15:33:22;24.00;50.40
70557;DHT22;58107;51.034;3.726;2022-07-25T15:35:50;23.90;50.60
70557;DHT22;58107;51.034;3.726;2022-07-25T15:38:17;23.80;50.60
70557;DHT22;58107;51.034;3.726;2022-07-25T15:40:45;23.80;50.60
70557;DHT22;58107;51.034;3.726;2022-07-25T15:43:13;23.80;50.00
70557;DHT22;58107;51.034;3.726;2022-07-25T15:45:43;23.70;49.60
70557;DHT22;58107;51.034;3.726;2022-07-25T15:48:12;23.50;50.00